sensor_id;sensor_type;location;lat;lon;timestamp;pressure;altitude;pressure_sealevel;temperature;humidity
71974;BME280;59840;52.122;5.404;2023-03-01T00:01:36;103373.03;;;-3.33;86.40
71974;BME280;59840;52.122;5.404;2023-03-01T00:04:03;103375.53;;;-3.31;86.25
71974;BME280;59840;52.122;5.404;2023-03-01T00:06:29;103372.19;;;-3.33;86.45
71974;BME280;59840;52.122;5.404;2023-03-01T00:08:57;103369.63;;;-3.33;86.09
71974;BME280;59840;52.122;5.404;2023-03-01T00:11:26;103368.78;;;-3.34;86.13
71974;BME280;59840;52.122;5.404;2023-03-01T00:13:56;103374.03;;;-3.35;85.96
71974;BME280;59840;52.122;5.404;2023-03-01T00:16:29;103378.47;;;-3.38;86.14
71974;BME280;59840;52.122;5.404;2023-03-01T00:18:57;103369.06;;;-3.39;86.25
71974;BME280;59840;52.122;5.404;2023-03-01T00:21:24;103371.06;;;-3.44;86.27
71974;BME280;59840;52.122;5.404;2023-03-01T00:23:51;103373.13;;;-3.49;86.54
71974;BME280;59840;52.122;5.404;2023-03-01T00:26:20;103368.88;;;-3.50;86.56
71974;BME280;59840;52.122;5.404;2023-03-01T00:28:47;103361.22;;;-3.51;86.33
71974;BME280;59840;52.122;5.404;2023-03-01T00:31:17;103361.13;;;-3.50;86.40
71974;BME280;59840;52.122;5.404;2023-03-01T00:33:44;103360.97;;;-3.47;86.42
71974;BME280;59840;52.122;5.404;2023-03-01T00:36:13;103354.84;;;-3.46;86.23
71974;BME280;59840;52.122;5.404;2023-03-01T00:38:42;103355.06;;;-3.49;86.46
71974;BME280;59840;52.122;5.404;2023-03-01T00:41:12;103349.06;;;-3.49;86.53
71974;BME280;59840;52.122;5.404;2023-03-01T00:43:38;103351.91;;;-3.54;86.86
71974;BME280;59840;52.122;5.404;2023-03-01T00:46:10;103361.59;;;-3.57;87.08
71974;BME280;59840;52.122;5.404;2023-03-01T00:48:38;103359.09;;;-3.59;87.40
71974;BME280;59840;52.122;5.404;2023-03-01T00:53:32;103359.44;;;-3.65;88.08
71974;BME280;59840;52.122;5.404;2023-03-01T00:55:59;103353.72;;;-3.70;88.48
71974;BME280;59840;52.122;5.404;2023-03-01T00:58:26;103360.88;;;-3.75;88.80
71974;BME280;59840;52.122;5.404;2023-03-01T01:00:52;103355.81;;;-3.77;88.75
71974;BME280;59840;52.122;5.404;2023-03-01T01:03:19;103347.25;;;-3.77;88.99
71974;BME280;59840;52.122;5.404;2023-03-01T01:05:46;103344.75;;;-3.79;89.28
71974;BME280;59840;52.122;5.404;2023-03-01T01:08:12;103349.16;;;-3.81;89.19
71974;BME280;59840;52.122;5.404;2023-03-01T01:10:39;103338.84;;;-3.81;88.97
71974;BME280;59840;52.122;5.404;2023-03-01T01:13:05;103339.59;;;-3.79;88.77
71974;BME280;59840;52.122;5.404;2023-03-01T01:15:35;103330.09;;;-3.78;88.72
71974;BME280;59840;52.122;5.404;2023-03-01T01:18:02;103330.94;;;-3.78;88.88
71974;BME280;59840;52.122;5.404;2023-03-01T01:20:29;103331.22;;;-3.82;89.02
71974;BME280;59840;52.122;5.404;2023-03-01T01:22:55;103329.75;;;-3.86;89.46
71974;BME280;59840;52.122;5.404;2023-03-01T01:25:22;103323.19;;;-3.92;89.46
71974;BME280;59840;52.122;5.404;2023-03-01T01:27:51;103330.09;;;-3.92;89.54
71974;BME280;59840;52.122;5.404;2023-03-01T01:30:17;103316.47;;;-3.94;89.78
71974;BME280;59840;52.122;5.404;2023-03-01T01:32:44;103311.31;;;-3.94;89.79
71974;BME280;59840;52.122;5.404;2023-03-01T01:35:11;103303.56;;;-3.94;89.12
71974;BME280;59840;52.122;5.404;2023-03-01T01:37:37;103308.72;;;-3.94;89.75
71974;BME280;59840;52.122;5.404;2023-03-01T01:40:04;103313.69;;;-3.91;89.62
71974;BME280;59840;52.122;5.404;2023-03-01T01:42:31;103312.88;;;-3.92;89.61
71974;BME280;59840;52.122;5.404;2023-03-01T01:48:02;103313.78;;;-3.93;89.12
71974;BME280;59840;52.122;5.404;2023-03-01T01:50:31;103314.72;;;-3.94;89.05
71974;BME280;59840;52.122;5.404;2023-03-01T01:53:08;103309.06;;;-4.00;89.31
71974;BME280;59840;52.122;5.404;2023-03-01T01:55:37;103304.81;;;-4.01;89.37
71974;BME280;59840;52.122;5.404;2023-03-01T01:58:08;103309.06;;;-4.00;89.25
71974;BME280;59840;52.122;5.404;2023-03-01T02:00:36;103305.00;;;-4.05;89.33
71974;BME280;59840;52.122;5.404;2023-03-01T02:03:11;103301.50;;;-4.03;89.12
71974;BME280;59840;52.122;5.404;2023-03-01T02:06:04;103297.84;;;-3.99;88.79
71974;BME280;59840;52.122;5.404;2023-03-01T02:08:36;103293.59;;;-4.00;88.93
71974;BME280;59840;52.122;5.404;2023-03-01T02:11:04;103296.34;;;-4.03;89.22
71974;BME280;59840;52.122;5.404;2023-03-01T02:13:32;103297.34;;;-4.06;89.46
71974;BME280;59840;52.122;5.404;2023-03-01T02:16:03;103292.38;;;-4.09;89.80
71974;BME280;59840;52.122;5.404;2023-03-01T02:18:31;103290.06;;;-4.14;89.96
71974;BME280;59840;52.122;5.404;2023-03-01T02:23:40;103293.66;;;-4.16;90.00
71974;BME280;59840;52.122;5.404;2023-03-01T02:29:24;103290.25;;;-4.17;89.46
71974;BME280;59840;52.122;5.404;2023-03-01T02:31:54;103287.69;;;-4.17;89.78
71974;BME280;59840;52.122;5.404;2023-03-01T02:34:24;103281.78;;;-4.19;89.93
71974;BME280;59840;52.122;5.404;2023-03-01T02:36:58;103281.97;;;-4.22;90.10
71974;BME280;59840;52.122;5.404;2023-03-01T02:39:30;103271.81;;;-4.25;90.45
71974;BME280;59840;52.122;5.404;2023-03-01T02:41:58;103270.31;;;-4.29;90.29
71974;BME280;59840;52.122;5.404;2023-03-01T02:44:26;103265.16;;;-4.29;90.14
71974;BME280;59840;52.122;5.404;2023-03-01T02:46:55;103267.00;;;-4.31;90.20
71974;BME280;59840;52.122;5.404;2023-03-01T02:49:26;103270.41;;;-4.30;90.33
71974;BME280;59840;52.122;5.404;2023-03-01T02:54:43;103268.66;;;-4.30;89.96
71974;BME280;59840;52.122;5.404;2023-03-01T02:57:12;103264.34;;;-4.29;90.07
71974;BME280;59840;52.122;5.404;2023-03-01T02:59:39;103272.16;;;-4.31;90.20
71974;BME280;59840;52.122;5.404;2023-03-01T03:02:23;103263.69;;;-4.33;90.20
71974;BME280;59840;52.122;5.404;2023-03-01T03:05:14;103260.38;;;-4.35;90.32
71974;BME280;59840;52.122;5.404;2023-03-01T03:07:43;103259.63;;;-4.37;89.86
71974;BME280;59840;52.122;5.404;2023-03-01T03:10:13;103254.47;;;-4.37;90.11
71974;BME280;59840;52.122;5.404;2023-03-01T03:12:41;103251.88;;;-4.37;90.46
71974;BME280;59840;52.122;5.404;2023-03-01T03:15:09;103250.41;;;-4.41;91.04
71974;BME280;59840;52.122;5.404;2023-03-01T03:17:39;103255.72;;;-4.44;90.92
71974;BME280;59840;52.122;5.404;2023-03-01T03:20:09;103254.72;;;-4.42;91.77
71974;BME280;59840;52.122;5.404;2023-03-01T03:22:38;103248.00;;;-4.44;91.65
71974;BME280;59840;52.122;5.404;2023-03-01T03:25:07;103247.06;;;-4.43;91.77
71974;BME280;59840;52.122;5.404;2023-03-01T03:27:41;103239.44;;;-4.45;91.65
71974;BME280;59840;52.122;5.404;2023-03-01T03:30:10;103244.66;;;-4.46;91.81
71974;BME280;59840;52.122;5.404;2023-03-01T03:32:39;103243.09;;;-4.49;91.44
71974;BME280;59840;52.122;5.404;2023-03-01T03:35:07;103245.59;;;-4.47;91.49
71974;BME280;59840;52.122;5.404;2023-03-01T03:37:39;103244.84;;;-4.49;91.13
71974;BME280;59840;52.122;5.404;2023-03-01T03:40:25;103252.78;;;-4.52;91.20
71974;BME280;59840;52.122;5.404;2023-03-01T03:42:51;103253.84;;;-4.56;90.98
71974;BME280;59840;52.122;5.404;2023-03-01T03:45:18;103255.78;;;-4.60;91.40
71974;BME280;59840;52.122;5.404;2023-03-01T03:47:45;103256.03;;;-4.64;91.24
71974;BME280;59840;52.122;5.404;2023-03-01T03:50:14;103242.50;;;-4.68;91.13
71974;BME280;59840;52.122;5.404;2023-03-01T03:52:41;103236.34;;;-4.65;91.19
71974;BME280;59840;52.122;5.404;2023-03-01T03:55:10;103238.00;;;-4.64;90.92
71974;BME280;59840;52.122;5.404;2023-03-01T03:57:40;103230.44;;;-4.67;90.97
71974;BME280;59840;52.122;5.404;2023-03-01T04:00:10;103222.88;;;-4.70;91.29
71974;BME280;59840;52.122;5.404;2023-03-01T04:02:43;103233.34;;;-4.74;91.32
71974;BME280;59840;52.122;5.404;2023-03-01T04:05:11;103240.41;;;-4.77;91.40
71974;BME280;59840;52.122;5.404;2023-03-01T04:07:38;103237.94;;;-4.79;91.76
71974;BME280;59840;52.122;5.404;2023-03-01T04:10:07;103236.25;;;-4.80;91.83
71974;BME280;59840;52.122;5.404;2023-03-01T04:12:34;103242.50;;;-4.84;91.99
71974;BME280;59840;52.122;5.404;2023-03-01T04:15:06;103243.59;;;-4.88;92.14
71974;BME280;59840;52.122;5.404;2023-03-01T04:17:43;103242.69;;;-4.87;92.25
71974;BME280;59840;52.122;5.404;2023-03-01T04:20:15;103242.69;;;-4.87;92.31
71974;BME280;59840;52.122;5.404;2023-03-01T04:23:06;103238.53;;;-4.89;92.22
71974;BME280;59840;52.122;5.404;2023-03-01T04:25:59;103244.53;;;-4.89;91.79
71974;BME280;59840;52.122;5.404;2023-03-01T04:28:37;103245.59;;;-4.93;91.62
71974;BME280;59840;52.122;5.404;2023-03-01T04:31:06;103238.13;;;-4.97;91.90
71974;BME280;59840;52.122;5.404;2023-03-01T04:33:44;103239.88;;;-4.98;91.63
71974;BME280;59840;52.122;5.404;2023-03-01T04:36:12;103246.69;;;-4.97;91.74
71974;BME280;59840;52.122;5.404;2023-03-01T04:38:40;103245.84;;;-4.97;91.32
71974;BME280;59840;52.122;5.404;2023-03-01T04:41:09;103243.34;;;-4.99;91.26
71974;BME280;59840;52.122;5.404;2023-03-01T04:43:36;103240.88;;;-5.00;91.31
71974;BME280;59840;52.122;5.404;2023-03-01T04:46:06;103241.03;;;-5.03;91.11
71974;BME280;59840;52.122;5.404;2023-03-01T04:48:36;103238.38;;;-5.02;91.21
71974;BME280;59840;52.122;5.404;2023-03-01T04:51:03;103226.50;;;-5.04;90.78
71974;BME280;59840;52.122;5.404;2023-03-01T04:53:30;103226.50;;;-5.04;91.11
71974;BME280;59840;52.122;5.404;2023-03-01T04:55:57;103221.44;;;-5.06;91.08
71974;BME280;59840;52.122;5.404;2023-03-01T04:58:24;103218.94;;;-5.08;90.96
71974;BME280;59840;52.122;5.404;2023-03-01T05:00:52;103212.97;;;-5.08;91.27
71974;BME280;59840;52.122;5.404;2023-03-01T05:03:20;103214.78;;;-5.10;91.48
71974;BME280;59840;52.122;5.404;2023-03-01T05:05:48;103207.22;;;-5.13;91.49
71974;BME280;59840;52.122;5.404;2023-03-01T05:08:15;103205.72;;;-5.17;91.54
71974;BME280;59840;52.122;5.404;2023-03-01T05:10:48;103198.91;;;-5.18;91.41
71974;BME280;59840;52.122;5.404;2023-03-01T05:13:15;103199.03;;;-5.20;91.61
71974;BME280;59840;52.122;5.404;2023-03-01T05:16:00;103197.63;;;-5.25;91.85
71974;BME280;59840;52.122;5.404;2023-03-01T05:18:29;103197.72;;;-5.27;91.76
71974;BME280;59840;52.122;5.404;2023-03-01T05:21:03;103184.16;;;-5.30;92.03
71974;BME280;59840;52.122;5.404;2023-03-01T05:23:32;103191.06;;;-5.31;92.11
71974;BME280;59840;52.122;5.404;2023-03-01T05:26:00;103183.41;;;-5.32;92.02
71974;BME280;59840;52.122;5.404;2023-03-01T05:28:27;103184.25;;;-5.32;91.62
71974;BME280;59840;52.122;5.404;2023-03-01T05:30:55;103174.78;;;-5.31;91.56
71974;BME280;59840;52.122;5.404;2023-03-01T05:33:22;103169.66;;;-5.31;91.63
71974;BME280;59840;52.122;5.404;2023-03-01T05:35:49;103173.81;;;-5.29;91.58
71974;BME280;59840;52.122;5.404;2023-03-01T05:38:17;103169.47;;;-5.28;91.11
71974;BME280;59840;52.122;5.404;2023-03-01T05:40:46;103164.25;;;-5.27;91.19
71974;BME280;59840;52.122;5.404;2023-03-01T05:43:14;103162.50;;;-5.26;91.02
71974;BME280;59840;52.122;5.404;2023-03-01T05:45:42;103154.13;;;-5.30;91.25
71974;BME280;59840;52.122;5.404;2023-03-01T05:48:09;103153.28;;;-5.30;91.00
71974;BME280;59840;52.122;5.404;2023-03-01T05:50:42;103150.81;;;-5.32;90.69
71974;BME280;59840;52.122;5.404;2023-03-01T05:53:11;103156.78;;;-5.31;90.67
71974;BME280;59840;52.122;5.404;2023-03-01T05:55:38;103150.06;;;-5.34;90.61
71974;BME280;59840;52.122;5.404;2023-03-01T05:58:08;103154.47;;;-5.36;90.79
71974;BME280;59840;52.122;5.404;2023-03-01T06:00:35;103151.06;;;-5.36;90.84
71974;BME280;59840;52.122;5.404;2023-03-01T06:03:02;103151.97;;;-5.37;90.85
71974;BME280;59840;52.122;5.404;2023-03-01T06:05:29;103148.72;;;-5.41;90.74
71974;BME280;59840;52.122;5.404;2023-03-01T06:07:59;103151.38;;;-5.43;91.11
71974;BME280;59840;52.122;5.404;2023-03-01T06:10:26;103148.06;;;-5.45;90.89
71974;BME280;59840;52.122;5.404;2023-03-01T06:12:53;103151.63;;;-5.47;90.90
71974;BME280;59840;52.122;5.404;2023-03-01T06:15:21;103153.53;;;-5.51;91.21
71974;BME280;59840;52.122;5.404;2023-03-01T06:17:48;103155.34;;;-5.53;91.24
71974;BME280;59840;52.122;5.404;2023-03-01T06:20:20;103160.50;;;-5.53;91.27
71974;BME280;59840;52.122;5.404;2023-03-01T06:22:48;103155.34;;;-5.53;91.09
71974;BME280;59840;52.122;5.404;2023-03-01T06:25:18;103162.06;;;-5.50;91.48
71974;BME280;59840;52.122;5.404;2023-03-01T06:27:47;103160.41;;;-5.51;91.28
71974;BME280;59840;52.122;5.404;2023-03-01T06:30:16;103162.06;;;-5.50;91.20
71974;BME280;59840;52.122;5.404;2023-03-01T06:32:43;103149.88;;;-5.47;91.18
71974;BME280;59840;52.122;5.404;2023-03-01T06:35:12;103153.38;;;-5.48;91.22
71974;BME280;59840;52.122;5.404;2023-03-01T06:37:40;103157.59;;;-5.47;91.11
71974;BME280;59840;52.122;5.404;2023-03-01T06:40:07;103162.59;;;-5.44;91.35
71974;BME280;59840;52.122;5.404;2023-03-01T06:42:35;103161.34;;;-5.36;91.07
71974;BME280;59840;52.122;5.404;2023-03-01T06:45:03;103161.94;;;-5.31;91.06
71974;BME280;59840;52.122;5.404;2023-03-01T06:47:31;103159.84;;;-5.25;91.05
71974;BME280;59840;52.122;5.404;2023-03-01T06:50:00;103165.47;;;-5.18;90.88
71974;BME280;59840;52.122;5.404;2023-03-01T06:52:27;103159.06;;;-5.11;90.78
71974;BME280;59840;52.122;5.404;2023-03-01T06:54:53;103156.16;;;-5.05;90.81
71974;BME280;59840;52.122;5.404;2023-03-01T06:57:20;103158.16;;;-4.94;90.45
71974;BME280;59840;52.122;5.404;2023-03-01T06:59:47;103153.66;;;-4.61;90.28
71974;BME280;59840;52.122;5.404;2023-03-01T07:02:14;103156.16;;;-4.45;89.55
71974;BME280;59840;52.122;5.404;2023-03-01T07:04:41;103161.03;;;-4.41;89.30
71974;BME280;59840;52.122;5.404;2023-03-01T07:07:08;103156.91;;;-4.15;88.54
71974;BME280;59840;52.122;5.404;2023-03-01T07:09:35;103152.59;;;-4.14;88.77
71974;BME280;59840;52.122;5.404;2023-03-01T07:12:02;103145.69;;;-4.14;88.65
71974;BME280;59840;52.122;5.404;2023-03-01T07:14:29;103157.69;;;-3.98;88.85
71974;BME280;59840;52.122;5.404;2023-03-01T07:16:56;103156.22;;;-3.88;88.67
71974;BME280;59840;52.122;5.404;2023-03-01T07:19:23;103161.81;;;-3.82;88.94
71974;BME280;59840;52.122;5.404;2023-03-01T07:21:49;103149.44;;;-3.77;88.73
71974;BME280;59840;52.122;5.404;2023-03-01T07:24:16;103164.28;;;-3.66;88.17
71974;BME280;59840;52.122;5.404;2023-03-01T07:26:42;103161.59;;;-3.50;87.67
71974;BME280;59840;52.122;5.404;2023-03-01T07:29:10;103169.28;;;-3.36;86.87
71974;BME280;59840;52.122;5.404;2023-03-01T07:31:37;103167.91;;;-3.27;86.53
71974;BME280;59840;52.122;5.404;2023-03-01T07:34:03;103171.56;;;-3.17;86.01
71974;BME280;59840;52.122;5.404;2023-03-01T07:36:30;103167.34;;;-3.06;86.73
71974;BME280;59840;52.122;5.404;2023-03-01T07:38:57;103169.06;;;-2.92;87.16
71974;BME280;59840;52.122;5.404;2023-03-01T07:41:24;103170.75;;;-2.78;87.24
71974;BME280;59840;52.122;5.404;2023-03-01T07:43:51;103176.66;;;-2.63;87.68
71974;BME280;59840;52.122;5.404;2023-03-01T07:46:17;103173.47;;;-2.54;87.87
71974;BME280;59840;52.122;5.404;2023-03-01T07:48:45;103184.56;;;-2.40;88.39
71974;BME280;59840;52.122;5.404;2023-03-01T07:51:12;103181.16;;;-2.27;88.87
71974;BME280;59840;52.122;5.404;2023-03-01T07:53:39;103169.28;;;-2.17;89.40
71974;BME280;59840;52.122;5.404;2023-03-01T07:56:09;103174.13;;;-2.00;90.03
71974;BME280;59840;52.122;5.404;2023-03-01T07:58:37;103178.25;;;-1.85;90.20
71974;BME280;59840;52.122;5.404;2023-03-01T08:01:11;103173.75;;;-1.70;90.86
71974;BME280;59840;52.122;5.404;2023-03-01T08:03:38;103176.00;;;-1.53;90.59
71974;BME280;59840;52.122;5.404;2023-03-01T08:06:07;103167.41;;;-1.41;90.70
71974;BME280;59840;52.122;5.404;2023-03-01T08:08:34;103175.22;;;-1.29;90.74
71974;BME280;59840;52.122;5.404;2023-03-01T08:11:04;103169.16;;;-1.17;90.18
71974;BME280;59840;52.122;5.404;2023-03-01T08:13:31;103170.06;;;-1.06;90.25
71974;BME280;59840;52.122;5.404;2023-03-01T08:16:05;103167.50;;;-0.94;89.87
71974;BME280;59840;52.122;5.404;2023-03-01T08:18:32;103170.03;;;-0.82;90.42
71974;BME280;59840;52.122;5.404;2023-03-01T08:21:07;103169.47;;;-0.74;90.11
71974;BME280;59840;52.122;5.404;2023-03-01T08:23:34;103166.06;;;-0.63;89.38
71974;BME280;59840;52.122;5.404;2023-03-01T08:26:09;103161.03;;;-0.54;89.51
71974;BME280;59840;52.122;5.404;2023-03-01T08:28:36;103167.06;;;-0.42;89.42
71974;BME280;59840;52.122;5.404;2023-03-01T08:31:03;103162.84;;;-0.32;88.62
71974;BME280;59840;52.122;5.404;2023-03-01T08:33:29;103162.63;;;-0.18;87.78
71974;BME280;59840;52.122;5.404;2023-03-01T08:36:04;103164.28;;;-0.06;86.40
71974;BME280;59840;52.122;5.404;2023-03-01T08:38:30;103162.16;;;0.11;85.37
71974;BME280;59840;52.122;5.404;2023-03-01T08:41:00;103154.38;;;0.22;84.78
71974;BME280;59840;52.122;5.404;2023-03-01T08:43:27;103146.56;;;0.33;84.37
71974;BME280;59840;52.122;5.404;2023-03-01T08:45:53;103143.00;;;0.45;83.69
71974;BME280;59840;52.122;5.404;2023-03-01T08:48:20;103143.69;;;0.58;83.55
71974;BME280;59840;52.122;5.404;2023-03-01T08:50:46;103148.59;;;0.73;81.16
71974;BME280;59840;52.122;5.404;2023-03-01T08:53:13;103133.22;;;0.81;81.31
71974;BME280;59840;52.122;5.404;2023-03-01T08:55:40;103135.53;;;0.95;81.06
71974;BME280;59840;52.122;5.404;2023-03-01T08:58:06;103134.75;;;1.04;81.38
71974;BME280;59840;52.122;5.404;2023-03-01T09:00:33;103138.59;;;1.21;80.15
71974;BME280;59840;52.122;5.404;2023-03-01T09:03:01;103136.53;;;1.36;79.77
71974;BME280;59840;52.122;5.404;2023-03-01T09:05:31;103127.94;;;1.45;78.96
71974;BME280;59840;52.122;5.404;2023-03-01T09:07:58;103124.19;;;1.58;78.81
71974;BME280;59840;52.122;5.404;2023-03-01T09:10:25;103116.56;;;1.66;76.71
71974;BME280;59840;52.122;5.404;2023-03-01T09:12:52;103116.72;;;1.75;76.64
71974;BME280;59840;52.122;5.404;2023-03-01T09:15:19;103116.50;;;1.87;76.50
71974;BME280;59840;52.122;5.404;2023-03-01T09:17:45;103111.34;;;1.97;75.92
71974;BME280;59840;52.122;5.404;2023-03-01T09:20:13;103117.81;;;2.03;74.52
71974;BME280;59840;52.122;5.404;2023-03-01T09:22:40;103105.75;;;2.11;74.05
71974;BME280;59840;52.122;5.404;2023-03-01T09:25:06;103107.13;;;2.15;73.73
71974;BME280;59840;52.122;5.404;2023-03-01T09:27:33;103099.19;;;2.17;74.34
71974;BME280;59840;52.122;5.404;2023-03-01T09:30:00;103090.31;;;2.29;74.68
71974;BME280;59840;52.122;5.404;2023-03-01T09:32:27;103089.38;;;2.40;73.20
71974;BME280;59840;52.122;5.404;2023-03-01T09:34:56;103092.13;;;2.38;73.17
71974;BME280;59840;52.122;5.404;2023-03-01T09:37:35;103086.63;;;2.51;72.50
71974;BME280;59840;52.122;5.404;2023-03-01T09:40:09;103085.69;;;2.61;71.01
71974;BME280;59840;52.122;5.404;2023-03-01T09:42:51;103078.69;;;2.62;71.75
71974;BME280;59840;52.122;5.404;2023-03-01T09:45:26;103082.56;;;2.77;71.34
71974;BME280;59840;52.122;5.404;2023-03-01T09:47:54;103084.31;;;2.86;69.98
71974;BME280;59840;52.122;5.404;2023-03-01T09:50:21;103079.09;;;2.96;70.27
71974;BME280;59840;52.122;5.404;2023-03-01T09:55:26;103083.47;;;3.05;68.69
71974;BME280;59840;52.122;5.404;2023-03-01T09:58:05;103077.84;;;3.10;68.47
71974;BME280;59840;52.122;5.404;2023-03-01T10:00:39;103081.66;;;3.25;69.10
71974;BME280;59840;52.122;5.404;2023-03-01T10:03:17;103078.34;;;3.32;66.33
71974;BME280;59840;52.122;5.404;2023-03-01T10:08:31;103077.31;;;3.53;65.87
71974;BME280;59840;52.122;5.404;2023-03-01T10:11:03;103076.75;;;3.49;64.61
71974;BME280;59840;52.122;5.404;2023-03-01T10:13:39;103078.28;;;3.52;64.73
71974;BME280;59840;52.122;5.404;2023-03-01T10:16:16;103085.25;;;3.61;63.32
71974;BME280;59840;52.122;5.404;2023-03-01T10:18:46;103076.31;;;3.63;63.15
71974;BME280;59840;52.122;5.404;2023-03-01T10:21:17;103073.97;;;3.70;63.34
71974;BME280;59840;52.122;5.404;2023-03-01T10:23:46;103073.66;;;3.73;63.30
71974;BME280;59840;52.122;5.404;2023-03-01T10:31:48;103076.06;;;3.84;63.46
71974;BME280;59840;52.122;5.404;2023-03-01T10:34:21;103061.75;;;3.88;62.53
71974;BME280;59840;52.122;5.404;2023-03-01T10:36:51;103067.09;;;3.96;63.32
71974;BME280;59840;52.122;5.404;2023-03-01T10:39:24;103062.41;;;4.00;62.15
71974;BME280;59840;52.122;5.404;2023-03-01T10:42:09;103051.50;;;4.04;62.49
71974;BME280;59840;52.122;5.404;2023-03-01T10:44:47;103052.72;;;4.10;61.62
71974;BME280;59840;52.122;5.404;2023-03-01T10:47:21;103054.06;;;4.14;60.27
71974;BME280;59840;52.122;5.404;2023-03-01T10:50:04;103038.31;;;4.24;59.25
71974;BME280;59840;52.122;5.404;2023-03-01T10:52:34;103028.63;;;4.34;58.57
71974;BME280;59840;52.122;5.404;2023-03-01T10:57:40;103033.34;;;4.48;57.23
71974;BME280;59840;52.122;5.404;2023-03-01T11:00:19;103025.22;;;4.59;57.48
71974;BME280;59840;52.122;5.404;2023-03-01T11:05:34;103002.34;;;4.79;58.28
71974;BME280;59840;52.122;5.404;2023-03-01T11:08:02;103010.50;;;4.76;56.11
71974;BME280;59840;52.122;5.404;2023-03-01T11:10:35;103005.34;;;4.84;57.25
71974;BME280;59840;52.122;5.404;2023-03-01T11:13:28;102998.34;;;4.93;57.87
71974;BME280;59840;52.122;5.404;2023-03-01T11:16:03;103003.94;;;4.98;56.25
71974;BME280;59840;52.122;5.404;2023-03-01T11:18:32;102990.13;;;4.88;56.21
71974;BME280;59840;52.122;5.404;2023-03-01T11:21:12;102988.59;;;5.03;56.11
71974;BME280;59840;52.122;5.404;2023-03-01T11:23:39;102982.03;;;4.99;56.28
71974;BME280;59840;52.122;5.404;2023-03-01T11:26:08;102977.47;;;5.01;54.66
71974;BME280;59840;52.122;5.404;2023-03-01T11:28:40;102973.09;;;5.10;54.49
71974;BME280;59840;52.122;5.404;2023-03-01T11:31:11;102980.50;;;5.22;55.46
71974;BME280;59840;52.122;5.404;2023-03-01T11:38:53;102975.63;;;5.27;53.43
71974;BME280;59840;52.122;5.404;2023-03-01T11:41:25;102979.59;;;5.31;53.72
71974;BME280;59840;52.122;5.404;2023-03-01T11:43:59;102986.81;;;5.37;52.11
71974;BME280;59840;52.122;5.404;2023-03-01T11:55:20;102974.94;;;5.51;51.28
71974;BME280;59840;52.122;5.404;2023-03-01T12:01:09;102951.34;;;5.43;52.06
71974;BME280;59840;52.122;5.404;2023-03-01T12:04:16;102953.00;;;5.52;51.21
71974;BME280;59840;52.122;5.404;2023-03-01T12:07:07;102955.28;;;5.55;50.87
71974;BME280;59840;52.122;5.404;2023-03-01T12:16:10;102970.09;;;5.81;51.70
71974;BME280;59840;52.122;5.404;2023-03-01T12:30:05;102952.13;;;5.86;49.23
71974;BME280;59840;52.122;5.404;2023-03-01T12:39:08;102941.50;;;6.03;49.76
71974;BME280;59840;52.122;5.404;2023-03-01T12:44:01;102938.09;;;6.11;49.10
71974;BME280;59840;52.122;5.404;2023-03-01T12:49:30;102931.69;;;6.30;49.53
71974;BME280;59840;52.122;5.404;2023-03-01T12:52:01;102922.19;;;6.21;49.08
71974;BME280;59840;52.122;5.404;2023-03-01T12:54:32;102911.22;;;6.17;49.86
71974;BME280;59840;52.122;5.404;2023-03-01T12:57:09;102910.38;;;6.25;49.41
71974;BME280;59840;52.122;5.404;2023-03-01T13:02:45;102896.63;;;6.15;49.57
71974;BME280;59840;52.122;5.404;2023-03-01T13:07:59;102884.16;;;6.33;49.62
71974;BME280;59840;52.122;5.404;2023-03-01T13:10:48;102877.28;;;6.32;50.21
71974;BME280;59840;52.122;5.404;2023-03-01T13:13:24;102872.69;;;6.42;49.37
71974;BME280;59840;52.122;5.404;2023-03-01T13:15:52;102874.31;;;6.51;47.90
71974;BME280;59840;52.122;5.404;2023-03-01T13:20:48;102885.63;;;6.44;48.07
71974;BME280;59840;52.122;5.404;2023-03-01T13:33:49;102849.84;;;6.59;48.57
71974;BME280;59840;52.122;5.404;2023-03-01T13:39:29;102844.66;;;6.51;48.31
71974;BME280;59840;52.122;5.404;2023-03-01T13:41:59;102838.59;;;6.42;46.72
71974;BME280;59840;52.122;5.404;2023-03-01T13:44:32;102839.91;;;6.38;46.95
71974;BME280;59840;52.122;5.404;2023-03-01T13:49:52;102841.69;;;6.54;47.64
71974;BME280;59840;52.122;5.404;2023-03-01T13:52:43;102839.19;;;6.60;47.63
71974;BME280;59840;52.122;5.404;2023-03-01T13:57:42;102831.97;;;6.62;48.08
71974;BME280;59840;52.122;5.404;2023-03-01T14:00:27;102823.59;;;6.67;47.25
71974;BME280;59840;52.122;5.404;2023-03-01T14:03:03;102832.28;;;6.67;46.93
71974;BME280;59840;52.122;5.404;2023-03-01T14:05:32;102817.69;;;6.65;47.44
71974;BME280;59840;52.122;5.404;2023-03-01T14:07:59;102807.88;;;6.59;46.56
71974;BME280;59840;52.122;5.404;2023-03-01T14:10:37;102810.38;;;6.52;46.34
71974;BME280;59840;52.122;5.404;2023-03-01T14:13:45;102803.66;;;6.58;47.33
71974;BME280;59840;52.122;5.404;2023-03-01T14:16:32;102795.06;;;6.64;47.05
71974;BME280;59840;52.122;5.404;2023-03-01T14:19:16;102785.47;;;6.56;47.01
71974;BME280;59840;52.122;5.404;2023-03-01T14:24:47;102784.72;;;6.70;46.78
71974;BME280;59840;52.122;5.404;2023-03-01T14:27:16;102779.78;;;6.76;45.20
71974;BME280;59840;52.122;5.404;2023-03-01T14:29:43;102782.44;;;6.67;45.60
71974;BME280;59840;52.122;5.404;2023-03-01T14:32:18;102779.81;;;6.67;45.50
71974;BME280;59840;52.122;5.404;2023-03-01T14:34:48;102769.84;;;6.63;45.69
71974;BME280;59840;52.122;5.404;2023-03-01T14:39:44;102756.19;;;6.76;45.32
71974;BME280;59840;52.122;5.404;2023-03-01T14:42:12;102763.22;;;6.75;47.51
71974;BME280;59840;52.122;5.404;2023-03-01T14:44:47;102753.84;;;6.81;46.26
71974;BME280;59840;52.122;5.404;2023-03-01T14:47:17;102753.41;;;6.69;45.32
71974;BME280;59840;52.122;5.404;2023-03-01T14:49:47;102752.94;;;6.65;46.41
71974;BME280;59840;52.122;5.404;2023-03-01T14:52:21;102759.00;;;6.66;45.81
71974;BME280;59840;52.122;5.404;2023-03-01T14:54:52;102762.13;;;6.61;46.32
71974;BME280;59840;52.122;5.404;2023-03-01T14:57:22;102756.38;;;6.66;46.78
71974;BME280;59840;52.122;5.404;2023-03-01T14:59:53;102762.94;;;6.62;46.61